createdAt,value
2023-01-05T00:01:39.881Z,4.35
2023-01-05T00:04:08.616Z,3.53
2023-01-05T00:06:39.677Z,4.30
2023-01-05T00:11:55.487Z,4.50
2023-01-05T00:14:42.832Z,3.90
2023-01-05T00:17:31.312Z,4.22
2023-01-05T00:20:17.390Z,4.03
2023-01-05T00:22:48.390Z,4.40
2023-01-05T00:25:19.452Z,4.50
2023-01-05T00:30:21.834Z,3.90
2023-01-05T00:32:50.723Z,4.05
2023-01-05T00:35:19.501Z,4.10
2023-01-05T00:37:47.835Z,4.63
2023-01-05T00:40:17.959Z,4.10
2023-01-05T00:42:48.102Z,4.10
2023-01-05T00:45:18.807Z,4.00
2023-01-05T00:47:47.066Z,4.15
2023-01-05T00:50:18.395Z,4.25
2023-01-05T00:52:47.176Z,3.97
2023-01-05T00:55:15.931Z,3.95
2023-01-05T00:57:44.203Z,4.50
2023-01-05T01:00:17.346Z,4.05
2023-01-05T01:02:45.797Z,3.63
2023-01-05T01:05:14.538Z,4.03
2023-01-05T01:07:42.855Z,3.78
2023-01-05T01:10:12.526Z,3.97
2023-01-05T01:15:09.470Z,4.43
2023-01-05T01:17:39.289Z,4.35
2023-01-05T01:20:08.918Z,4.40
2023-01-05T01:22:37.178Z,3.90
2023-01-05T01:25:06.263Z,4.43
2023-01-05T01:27:35.018Z,4.35
2023-01-05T01:30:03.424Z,3.97
2023-01-05T01:32:31.693Z,4.13
2023-01-05T01:35:01.295Z,4.07
2023-01-05T01:37:29.480Z,3.65
2023-01-05T01:39:58.456Z,4.32
2023-01-05T01:42:26.798Z,3.90
2023-01-05T01:44:58.231Z,4.05
2023-01-05T01:47:33.740Z,4.00
2023-01-05T01:50:07.922Z,4.18
2023-01-05T01:52:37.014Z,4.22
2023-01-05T01:55:08.070Z,4.75
2023-01-05T02:00:09.386Z,4.10
2023-01-05T02:02:37.746Z,4.20
2023-01-05T02:05:12.161Z,4.25
2023-01-05T02:07:46.623Z,3.72
2023-01-05T02:10:17.132Z,4.47
2023-01-05T02:13:01.041Z,4.10
2023-01-05T02:15:39.141Z,3.63
2023-01-05T02:18:28.942Z,4.05
2023-01-05T02:21:16.876Z,4.25
2023-01-05T02:24:19.178Z,3.92
2023-01-05T02:27:16.718Z,3.65
2023-01-05T02:30:14.831Z,3.50
2023-01-05T02:32:55.982Z,3.78
2023-01-05T02:38:06.693Z,3.60
2023-01-05T02:40:40.565Z,3.95
2023-01-05T02:43:11.035Z,3.78
2023-01-05T02:45:39.436Z,3.55
2023-01-05T02:48:09.288Z,4.25
2023-01-05T02:50:42.515Z,3.90
2023-01-05T02:53:15.449Z,3.88
2023-01-05T02:55:47.616Z,3.70
2023-01-05T02:58:20.435Z,3.20
2023-01-05T03:00:54.308Z,3.75
2023-01-05T03:03:31.355Z,4.03
2023-01-05T03:06:05.407Z,3.85
2023-01-05T03:08:38.337Z,3.75
2023-01-05T03:11:26.419Z,3.58
2023-01-05T03:13:57.844Z,3.90
2023-01-05T03:16:29.931Z,3.95
2023-01-05T03:19:20.851Z,4.13
2023-01-05T03:22:08.593Z,3.67
2023-01-05T03:24:55.978Z,3.65
2023-01-05T03:27:43.099Z,3.45
2023-01-05T03:30:31.137Z,4.18
2023-01-05T03:33:23.646Z,3.95
2023-01-05T03:35:58.461Z,3.90
2023-01-05T03:38:30.635Z,3.88
2023-01-05T03:41:02.505Z,3.55
2023-01-05T03:43:34.048Z,3.75
2023-01-05T03:46:02.468Z,3.38
2023-01-05T03:48:30.911Z,3.95
2023-01-05T03:51:00.657Z,4.00
2023-01-05T03:53:28.955Z,3.95
2023-01-05T03:55:57.159Z,3.83
2023-01-05T03:58:25.431Z,3.75
2023-01-05T04:00:53.626Z,3.22
2023-01-05T04:03:26.328Z,3.63
2023-01-05T04:05:57.680Z,3.72
2023-01-05T04:08:27.365Z,3.58
2023-01-05T04:10:56.493Z,3.67
2023-01-05T04:13:25.087Z,3.70
2023-01-05T04:15:53.391Z,3.60
2023-01-05T04:18:21.774Z,3.42
2023-01-05T04:20:50.081Z,3.70
2023-01-05T04:23:18.339Z,3.72
2023-01-05T04:25:49.503Z,3.25
2023-01-05T04:28:17.705Z,3.67
2023-01-05T04:30:46.110Z,3.35
2023-01-05T04:33:14.186Z,3.50
2023-01-05T04:35:42.365Z,3.40
2023-01-05T04:38:10.579Z,3.47
2023-01-05T04:40:38.730Z,3.40
2023-01-05T04:43:08.800Z,3.30
2023-01-05T04:45:37.052Z,3.50
2023-01-05T04:48:05.496Z,3.88
2023-01-05T04:50:33.678Z,3.10
2023-01-05T04:53:01.925Z,3.47
2023-01-05T04:55:30.207Z,3.75
2023-01-05T04:57:58.464Z,3.25
2023-01-05T05:00:28.636Z,3.50
2023-01-05T05:02:56.806Z,3.37
2023-01-05T05:05:24.927Z,3.15
2023-01-05T05:07:53.159Z,3.58
2023-01-05T05:10:21.310Z,3.33
2023-01-05T05:12:49.622Z,3.20
2023-01-05T05:15:17.973Z,3.45
2023-01-05T05:17:48.425Z,3.53
2023-01-05T05:20:16.911Z,3.03
2023-01-05T05:22:45.279Z,2.97
2023-01-05T05:25:13.663Z,3.55
2023-01-05T05:27:41.967Z,3.05
2023-01-05T05:30:11.373Z,3.20
2023-01-05T05:32:44.019Z,3.50
2023-01-05T05:35:14.157Z,2.53
2023-01-05T05:37:42.449Z,3.13
2023-01-05T05:40:12.455Z,3.20
2023-01-05T05:42:40.614Z,3.05
2023-01-05T05:45:09.895Z,3.33
2023-01-05T05:47:38.080Z,3.00
2023-01-05T05:50:07.323Z,3.25
2023-01-05T05:52:36.950Z,3.20
2023-01-05T05:55:05.879Z,3.17
2023-01-05T05:57:34.011Z,3.20
2023-01-05T06:00:02.110Z,3.00
2023-01-05T06:02:30.405Z,3.25
2023-01-05T06:04:58.562Z,3.30
2023-01-05T06:07:26.737Z,3.45
2023-01-05T06:09:56.320Z,3.00
2023-01-05T06:12:24.755Z,3.10
2023-01-05T06:14:53.086Z,2.95
2023-01-05T06:17:21.293Z,3.17
2023-01-05T06:19:49.566Z,3.00
2023-01-05T06:22:17.857Z,3.15
2023-01-05T06:24:46.064Z,3.30
2023-01-05T06:27:15.554Z,3.30
2023-01-05T06:29:43.766Z,3.60
2023-01-05T06:32:12.027Z,3.65
2023-01-05T06:34:40.230Z,3.20
2023-01-05T06:37:08.401Z,2.90
2023-01-05T06:39:36.676Z,2.92
2023-01-05T06:42:05.070Z,3.40
2023-01-05T06:44:34.659Z,3.03
2023-01-05T06:47:03.204Z,3.60
2023-01-05T06:49:31.446Z,3.35
2023-01-05T06:51:59.678Z,3.13
2023-01-05T06:54:27.904Z,3.10
2023-01-05T06:56:56.199Z,3.15
2023-01-05T06:59:24.359Z,3.17
2023-01-05T07:01:54.018Z,3.00
2023-01-05T07:04:22.290Z,3.00
2023-01-05T07:06:50.624Z,3.15
2023-01-05T07:09:18.948Z,3.50
2023-01-05T07:11:47.142Z,2.85
2023-01-05T07:14:15.898Z,3.13
2023-01-05T07:16:44.228Z,3.22
2023-01-05T07:19:14.073Z,2.80
2023-01-05T07:21:42.307Z,3.28
2023-01-05T07:24:10.874Z,3.28
2023-01-05T07:26:39.089Z,2.88
2023-01-05T07:29:07.401Z,3.05
2023-01-05T07:31:35.705Z,3.28
2023-01-05T07:34:03.944Z,3.20
2023-01-05T07:36:35.215Z,2.90
2023-01-05T07:39:03.653Z,3.53
2023-01-05T07:41:31.934Z,3.00
2023-01-05T07:44:00.196Z,2.90
2023-01-05T07:46:28.498Z,3.20
2023-01-05T07:48:56.709Z,3.20
2023-01-05T07:51:25.019Z,3.25
2023-01-05T07:53:55.871Z,3.60
2023-01-05T07:56:24.179Z,3.53
2023-01-05T07:58:52.346Z,3.00
2023-01-05T08:01:20.599Z,3.50
2023-01-05T08:03:48.903Z,3.30
2023-01-05T08:06:19.675Z,3.30
2023-01-05T08:08:48.037Z,3.60
2023-01-05T08:11:21.062Z,3.95
2023-01-05T08:14:02.942Z,3.75
2023-01-05T08:16:32.825Z,4.63
2023-01-05T08:19:04.223Z,5.47
2023-01-05T08:21:34.704Z,7.07
2023-01-05T08:24:03.012Z,9.38
2023-01-05T08:26:32.729Z,11.10
2023-01-05T08:29:01.388Z,10.52
2023-01-05T08:31:31.683Z,10.98
2023-01-05T08:34:02.498Z,12.53
2023-01-05T08:36:33.000Z,11.77
2023-01-05T08:39:02.417Z,12.93
2023-01-05T08:41:35.853Z,13.40
2023-01-05T08:44:06.931Z,13.80
2023-01-05T08:49:06.942Z,13.57
2023-01-05T08:51:36.029Z,13.43
2023-01-05T08:54:04.221Z,12.52
2023-01-05T08:56:38.666Z,12.95
2023-01-05T08:59:07.541Z,13.50
2023-01-05T09:01:36.965Z,11.75
2023-01-05T09:04:05.608Z,11.90
2023-01-05T09:06:33.856Z,12.65
2023-01-05T09:09:02.114Z,12.77
2023-01-05T09:11:30.463Z,11.48
2023-01-05T09:14:03.022Z,12.80
2023-01-05T09:19:21.740Z,12.97
2023-01-05T09:21:50.001Z,12.40
2023-01-05T09:24:18.136Z,12.77
2023-01-05T09:26:46.789Z,13.18
2023-01-05T09:29:16.467Z,12.77
2023-01-05T09:31:45.034Z,12.75
2023-01-05T09:34:13.252Z,12.05
2023-01-05T09:36:41.676Z,12.70
2023-01-05T09:39:10.850Z,12.95
2023-01-05T09:41:45.031Z,14.50
2023-01-05T09:44:27.718Z,14.45
2023-01-05T09:47:01.175Z,14.35
2023-01-05T09:49:31.136Z,14.65
2023-01-05T09:52:03.057Z,15.82
2023-01-05T09:54:34.831Z,15.63
2023-01-05T09:57:09.516Z,15.13
2023-01-05T09:59:42.174Z,15.65
2023-01-05T10:02:20.176Z,15.18
2023-01-05T10:04:49.814Z,16.88
2023-01-05T10:07:25.640Z,14.43
2023-01-05T10:09:58.474Z,14.27
2023-01-05T10:12:50.546Z,14.45
2023-01-05T10:15:22.026Z,13.30
2023-01-05T10:17:50.530Z,13.65
2023-01-05T10:20:21.846Z,13.75
2023-01-05T10:23:00.485Z,13.70
2023-01-05T10:25:39.584Z,12.88
2023-01-05T10:28:24.056Z,12.43
2023-01-05T10:30:59.514Z,12.75
2023-01-05T10:33:52.547Z,12.52
2023-01-05T10:39:56.009Z,12.77
2023-01-05T10:42:42.021Z,12.48
2023-01-05T10:45:12.785Z,11.38
2023-01-05T10:47:42.920Z,12.02
2023-01-05T10:50:37.022Z,12.13
2023-01-05T10:53:11.378Z,11.90
2023-01-05T10:55:45.815Z,11.45
2023-01-05T10:58:25.195Z,11.20
2023-01-05T11:00:56.527Z,11.45
2023-01-05T11:03:57.250Z,12.35
2023-01-05T11:06:25.090Z,12.40
2023-01-05T11:08:53.649Z,12.75
2023-01-05T11:11:25.541Z,11.82
2023-01-05T11:13:57.452Z,13.85
2023-01-05T11:16:28.565Z,13.88
2023-01-05T11:21:29.000Z,13.05
2023-01-05T11:23:59.061Z,14.18
2023-01-05T11:26:35.937Z,14.23
2023-01-05T11:29:13.413Z,13.38
2023-01-05T11:31:48.780Z,14.43
2023-01-05T11:34:39.239Z,14.38
2023-01-05T11:37:14.991Z,13.70
2023-01-05T11:39:52.606Z,13.95
2023-01-05T11:42:28.900Z,14.40
2023-01-05T11:44:59.545Z,14.50
2023-01-05T11:47:33.469Z,14.85
2023-01-05T11:50:16.777Z,15.60
2023-01-05T11:52:46.644Z,16.42
2023-01-05T11:55:34.188Z,15.68
2023-01-05T11:58:25.764Z,14.30
2023-01-05T12:01:39.214Z,15.52
2023-01-05T12:04:30.553Z,15.38
2023-01-05T12:07:31.558Z,15.20
2023-01-05T12:10:14.355Z,14.50
2023-01-05T12:12:54.719Z,13.95
2023-01-05T12:15:43.904Z,14.83
2023-01-05T12:18:25.812Z,14.55
2023-01-05T12:21:01.589Z,14.13
2023-01-05T12:23:47.951Z,14.43
2023-01-05T12:26:23.904Z,13.95
2023-01-05T12:36:00.113Z,14.40
2023-01-05T12:38:38.957Z,13.35
2023-01-05T12:41:35.598Z,13.35
2023-01-05T12:44:28.095Z,13.27
2023-01-05T12:47:06.797Z,14.05
2023-01-05T12:49:40.350Z,12.93
2023-01-05T12:52:14.316Z,13.40
2023-01-05T12:54:48.716Z,11.93
2023-01-05T12:57:24.982Z,13.07
2023-01-05T12:59:59.308Z,12.50
2023-01-05T13:02:35.869Z,12.52
2023-01-05T13:05:10.229Z,13.02
2023-01-05T13:07:46.049Z,12.32
2023-01-05T13:10:20.925Z,12.85
2023-01-05T13:12:52.105Z,12.88
2023-01-05T13:15:24.938Z,12.73
2023-01-05T13:17:57.233Z,12.35
2023-01-05T13:20:35.507Z,13.05
2023-01-05T13:23:07.663Z,12.60
2023-01-05T13:25:49.342Z,12.30
2023-01-05T13:28:21.434Z,12.32
2023-01-05T13:31:06.972Z,12.10
2023-01-05T13:33:56.075Z,11.23
2023-01-05T13:36:41.147Z,11.82
2023-01-05T13:39:34.693Z,12.13
2023-01-05T13:42:31.379Z,12.57
2023-01-05T13:45:27.797Z,11.80
2023-01-05T13:51:19.795Z,11.88
2023-01-05T13:53:52.736Z,11.90
2023-01-05T13:56:24.467Z,12.05
2023-01-05T13:58:59.528Z,11.88
2023-01-05T14:01:37.783Z,12.35
2023-01-05T14:04:16.281Z,10.75
2023-01-05T14:06:47.457Z,11.45
2023-01-05T14:09:19.678Z,11.10
2023-01-05T14:12:21.297Z,11.30
2023-01-05T14:15:39.831Z,11.90
2023-01-05T14:18:09.066Z,10.30
2023-01-05T14:20:46.896Z,10.77
2023-01-05T14:23:52.583Z,10.90
2023-01-05T14:26:59.327Z,11.95
2023-01-05T14:30:10.235Z,11.63
2023-01-05T14:32:42.269Z,11.05
2023-01-05T14:35:22.708Z,11.23
2023-01-05T14:37:57.432Z,10.90
2023-01-05T14:40:33.141Z,11.65
2023-01-05T14:43:03.206Z,10.48
2023-01-05T14:45:33.456Z,10.35
2023-01-05T14:48:07.449Z,11.40
2023-01-05T14:50:37.974Z,10.63
2023-01-05T14:53:14.061Z,10.68
2023-01-05T14:56:03.380Z,9.90
2023-01-05T14:58:56.049Z,11.48
2023-01-05T15:01:30.131Z,10.32
2023-01-05T15:04:06.429Z,10.75
2023-01-05T15:06:50.533Z,11.35
2023-01-05T15:10:04.698Z,10.45
2023-01-05T15:12:55.819Z,10.70
2023-01-05T15:15:42.303Z,9.82
2023-01-05T15:18:36.478Z,9.93
2023-01-05T15:21:46.411Z,10.32
2023-01-05T15:24:53.245Z,9.70
2023-01-05T15:27:40.092Z,9.70
2023-01-05T15:30:35.713Z,10.15
2023-01-05T15:33:13.691Z,9.77
2023-01-05T15:35:46.063Z,10.07
2023-01-05T15:38:21.306Z,9.18
2023-01-05T15:40:58.618Z,9.57
2023-01-05T15:43:27.153Z,9.70
2023-01-05T15:45:55.601Z,10.00
2023-01-05T15:48:29.853Z,9.43
2023-01-05T15:50:59.552Z,9.27
2023-01-05T15:53:35.387Z,9.77
2023-01-05T15:56:06.525Z,9.43
2023-01-05T15:58:44.568Z,8.93
2023-01-05T16:01:14.521Z,9.48
2023-01-05T16:03:44.330Z,9.52
2023-01-05T16:06:17.937Z,9.38
2023-01-05T16:08:48.637Z,9.35
2023-01-05T16:11:23.466Z,9.20
2023-01-05T16:13:55.024Z,9.90
2023-01-05T16:16:53.407Z,9.63
2023-01-05T16:19:20.653Z,9.38
2023-01-05T16:21:55.547Z,9.25
2023-01-05T16:24:27.647Z,9.20
2023-01-05T16:26:58.173Z,9.63
2023-01-05T16:29:39.308Z,8.88
2023-01-05T16:32:27.509Z,9.73
2023-01-05T16:35:30.772Z,8.82
2023-01-05T16:38:14.041Z,9.55
2023-01-05T16:40:59.245Z,8.55
2023-01-05T16:43:33.179Z,9.25
2023-01-05T16:46:32.313Z,9.25
2023-01-05T16:49:05.246Z,8.50
2023-01-05T16:51:41.713Z,9.05
2023-01-05T16:54:21.756Z,9.52
2023-01-05T16:56:58.338Z,9.23
2023-01-05T16:59:51.435Z,9.98
2023-01-05T17:02:39.323Z,9.07
2023-01-05T17:05:08.214Z,8.60
2023-01-05T17:07:39.416Z,9.48
2023-01-05T17:10:09.088Z,9.18
2023-01-05T17:12:38.779Z,9.13
2023-01-05T17:15:09.597Z,9.43
2023-01-05T17:17:37.767Z,9.15
2023-01-05T17:20:07.574Z,8.63
2023-01-05T17:22:35.772Z,8.70
2023-01-05T17:25:05.015Z,8.80
2023-01-05T17:27:34.371Z,9.43
2023-01-05T17:30:02.509Z,8.57
2023-01-05T17:32:32.193Z,8.98
2023-01-05T17:35:00.733Z,8.88
2023-01-05T17:37:29.800Z,8.13
2023-01-05T17:39:58.089Z,8.88
2023-01-05T17:42:44.341Z,8.95
2023-01-05T17:45:18.005Z,9.68
2023-01-05T17:47:48.446Z,8.60
2023-01-05T17:50:18.867Z,8.75
2023-01-05T17:52:47.169Z,8.68
2023-01-05T17:55:15.815Z,8.20
2023-01-05T17:57:44.240Z,8.98
2023-01-05T18:00:15.441Z,8.40
2023-01-05T18:02:44.582Z,8.70
2023-01-05T18:05:14.991Z,8.07
2023-01-05T18:07:43.643Z,9.07
2023-01-05T18:10:15.577Z,8.40
2023-01-05T18:12:44.085Z,8.55
2023-01-05T18:15:13.406Z,8.63
2023-01-05T18:17:42.593Z,8.40
2023-01-05T18:20:17.543Z,8.30
2023-01-05T18:22:48.086Z,8.80
2023-01-05T18:25:16.517Z,7.53
2023-01-05T18:27:44.739Z,8.27
2023-01-05T18:30:14.351Z,7.97
2023-01-05T18:32:43.391Z,8.65
2023-01-05T18:35:12.301Z,7.80
2023-01-05T18:37:42.855Z,8.27
2023-01-05T18:40:13.387Z,8.80
2023-01-05T18:42:41.835Z,8.90
2023-01-05T18:45:19.894Z,8.20
2023-01-05T18:47:58.084Z,8.63
2023-01-05T18:50:26.812Z,8.68
2023-01-05T18:52:56.509Z,7.95
2023-01-05T18:55:24.761Z,8.80
2023-01-05T18:57:53.061Z,8.45
2023-01-05T19:00:21.526Z,8.25
2023-01-05T19:02:49.832Z,8.30
2023-01-05T19:05:18.171Z,8.05
2023-01-05T19:07:46.370Z,7.97
2023-01-05T19:10:16.077Z,7.75
2023-01-05T19:12:44.291Z,8.80
2023-01-05T19:15:13.073Z,7.78
2023-01-05T19:17:41.532Z,7.93
2023-01-05T19:20:10.668Z,8.05
2023-01-05T19:22:40.064Z,8.13
2023-01-05T19:25:08.992Z,7.60
2023-01-05T19:27:38.726Z,7.55
2023-01-05T19:30:08.063Z,7.70
2023-01-05T19:32:37.060Z,8.15
2023-01-05T19:35:06.093Z,7.20
2023-01-05T19:37:35.632Z,7.95
2023-01-05T19:40:04.068Z,7.65
2023-01-05T19:42:33.104Z,7.95
2023-01-05T19:45:03.785Z,8.13
2023-01-05T19:47:32.240Z,8.50
2023-01-05T19:50:00.479Z,8.15
2023-01-05T19:52:30.013Z,7.30
2023-01-05T19:54:58.167Z,7.55
2023-01-05T19:57:26.416Z,7.60
2023-01-05T19:59:54.600Z,7.30
2023-01-05T20:02:25.954Z,7.13
2023-01-05T20:04:54.451Z,7.75
2023-01-05T20:07:22.696Z,7.68
2023-01-05T20:09:51.598Z,7.45
2023-01-05T20:12:19.870Z,6.93
2023-01-05T20:14:48.751Z,7.70
2023-01-05T20:17:18.493Z,7.50
2023-01-05T20:19:48.098Z,7.57
2023-01-05T20:22:16.376Z,7.80
2023-01-05T20:24:44.736Z,7.45
2023-01-05T20:27:15.008Z,7.60
2023-01-05T20:29:44.056Z,8.40
2023-01-05T20:32:15.810Z,6.97
2023-01-05T20:34:46.324Z,8.02
2023-01-05T20:37:16.092Z,7.47
2023-01-05T20:39:44.671Z,8.25
2023-01-05T20:42:14.138Z,8.65
2023-01-05T20:44:45.024Z,9.55
2023-01-05T20:47:13.827Z,8.93
2023-01-05T20:49:42.731Z,10.07
2023-01-05T20:52:12.298Z,12.25
2023-01-05T20:54:42.330Z,12.65
2023-01-05T20:57:11.043Z,12.82
2023-01-05T20:59:40.973Z,13.90
2023-01-05T21:02:22.868Z,14.18
2023-01-05T21:04:52.468Z,14.88
2023-01-05T21:07:21.738Z,16.15
2023-01-05T21:09:52.456Z,15.43
2023-01-05T21:12:21.787Z,16.13
2023-01-05T21:14:50.241Z,16.20
2023-01-05T21:17:18.864Z,16.95
2023-01-05T21:19:47.116Z,15.38
2023-01-05T21:22:15.671Z,16.63
2023-01-05T21:24:45.294Z,16.55
2023-01-05T21:27:15.013Z,16.00
2023-01-05T21:29:43.308Z,17.08
2023-01-05T21:32:11.529Z,15.65
2023-01-05T21:34:39.788Z,16.02
2023-01-05T21:37:08.118Z,15.88
2023-01-05T21:39:36.410Z,17.02
2023-01-05T21:42:30.677Z,16.30
2023-01-05T21:45:00.321Z,17.27
2023-01-05T21:47:28.598Z,16.65
2023-01-05T21:49:56.862Z,17.13
2023-01-05T21:52:42.607Z,17.00
2023-01-05T21:55:29.070Z,16.23
2023-01-05T21:57:57.608Z,17.27
2023-01-05T22:00:27.249Z,17.30
2023-01-05T22:02:55.464Z,16.83
2023-01-05T22:05:23.724Z,17.63
2023-01-05T22:07:52.605Z,16.42
2023-01-05T22:10:20.805Z,16.35
2023-01-05T22:12:49.101Z,16.77
2023-01-05T22:15:17.442Z,16.60
2023-01-05T22:17:46.979Z,17.20
2023-01-05T22:20:16.013Z,16.70
2023-01-05T22:22:44.281Z,16.20
2023-01-05T22:25:12.558Z,16.17
2023-01-05T22:27:40.770Z,16.83
2023-01-05T22:30:10.139Z,15.75
2023-01-05T22:32:38.647Z,15.82
2023-01-05T22:35:08.680Z,17.02
2023-01-05T22:37:37.058Z,16.45
2023-01-05T22:40:05.842Z,15.77
2023-01-05T22:42:34.318Z,16.38
2023-01-05T22:45:02.624Z,17.40
2023-01-05T22:47:30.994Z,18.10
2023-01-05T22:49:59.277Z,16.35
2023-01-05T22:52:28.828Z,17.20
2023-01-05T22:54:57.001Z,16.52
2023-01-05T22:57:25.179Z,16.67
2023-01-05T22:59:53.551Z,16.70
2023-01-05T23:02:21.913Z,16.80
2023-01-05T23:04:50.301Z,15.77
2023-01-05T23:07:20.789Z,16.30
2023-01-05T23:09:50.482Z,15.48
2023-01-05T23:12:18.849Z,18.17
2023-01-05T23:14:47.192Z,16.52
2023-01-05T23:17:15.321Z,16.15
2023-01-05T23:19:43.588Z,16.42
2023-01-05T23:22:11.952Z,15.68
2023-01-05T23:24:40.144Z,15.48
2023-01-05T23:27:09.792Z,15.18
2023-01-05T23:29:38.240Z,15.73
2023-01-05T23:32:07.061Z,14.27
2023-01-05T23:34:35.340Z,14.82
2023-01-05T23:37:03.575Z,14.05
2023-01-05T23:39:32.014Z,15.43
2023-01-05T23:42:00.218Z,15.50
2023-01-05T23:44:29.973Z,15.77
2023-01-05T23:46:58.228Z,14.80
2023-01-05T23:49:27.627Z,14.80
2023-01-05T23:51:55.905Z,14.32
2023-01-05T23:54:24.069Z,14.48
2023-01-05T23:56:52.385Z,13.82
2023-01-05T23:59:20.697Z,14.25
